This is the latest recevied weather packets stored in our database for station/object N1UNH. If no packets are shown the sender has not sent any weather packets the latest 10 day(s).
| Time | Temp. | Humidity | Pressure | Rain* | Wind** | Luminosity | Snow |
|---|---|---|---|---|---|---|---|
| 1778170771 | 15.56° C | 36% | 1012.8 hPa | 0 mm | - | 995 W/m² | - |
| 1778170467 | 15° C | 36% | 1012.7 hPa | 0 mm | - | 992 W/m² | - |
| 1778170164 | 15° C | 41% | 1012.6 hPa | 0 mm | - | 990 W/m² | - |
| 1778169860 | 15.56° C | 37% | 1012.8 hPa | 0 mm | - | 987 W/m² | - |
| 1778169556 | 15.56° C | 35% | 1012.8 hPa | 0 mm | - | 1002 W/m² | - |
| 1778169252 | 15° C | 43% | 1012.6 hPa | 0 mm | - | 995 W/m² | - |
| 1778168949 | 14.44° C | 42% | 1012.8 hPa | 0 mm | - | 974 W/m² | - |
| 1778168646 | 14.44° C | 41% | 1012.9 hPa | 0 mm | - | 230 W/m² | - |
| 1778168343 | 14.44° C | 44% | 1012.8 hPa | 0 mm | - | 961 W/m² | - |
| 1778168039 | 14.44° C | 40% | 1012.9 hPa | 0 mm | - | 963 W/m² | - |
| 1778167944 | 13.89° C | 42% | 1013 hPa | 0 mm | - | 833 W/m² | - |
| 1778167736 | 13.89° C | 42% | 1013 hPa | 0 mm | - | 833 W/m² | - |
| 1778167651 | 13.89° C | 48% | 1013 hPa | 0 mm | - | 516 W/m² | - |
| 1778167432 | 13.33° C | 44% | 1013 hPa | 0 mm | - | 532 W/m² | - |
| 1778167128 | 13.89° C | 48% | 1013 hPa | 0 mm | - | 516 W/m² | - |
| 1778166824 | 13.89° C | 46% | 1013.3 hPa | 0 mm | - | 334 W/m² | - |
| 1778166522 | 13.33° C | 53% | 1013 hPa | 0 mm | - | 629 W/m² | - |
| 1778166218 | 12.78° C | 53% | 1013.3 hPa | 0 mm | - | 336 W/m² | - |
| 1778165915 | 12.78° C | 61% | 1013.1 hPa | 0 mm | - | 89 W/m² | - |
| 1778165611 | 11.67° C | 66% | 1012.9 hPa | 0 mm | - | 463 W/m² | - |
| 1778165309 | 11.11° C | 66% | 1012.8 hPa | 0 mm | - | 317 W/m² | - |
| 1778165006 | 11.11° C | 61% | 1013.2 hPa | 0 mm | - | 110 W/m² | - |
| 1778164702 | 11.11° C | 64% | 1013.1 hPa | 0 mm | - | 137 W/m² | - |
| 1778164400 | 11.11° C | 65% | 1013.3 hPa | 0 mm | - | 135 W/m² | - |
| 1778164095 | 11.67° C | 66% | 1013.1 hPa | 0 mm | - | 125 W/m² | - |
* Rain latest hour (hover to see other rain measurements)
** Current wind speed in m/s (hover to see current wind gust speed)